sensor_id;sensor_type;location;lat;lon;timestamp;pressure;altitude;pressure_sealevel;temperature;humidity
48874;BME280;66155;46.204;5.220;2023-08-06T07:20:52;98826.56;;;16.38;64.21
48874;BME280;66155;46.204;5.220;2023-08-06T07:26:43;98821.75;;;16.64;63.85
48874;BME280;66155;46.204;5.220;2023-08-06T07:32:34;98838.41;;;16.79;63.35
48874;BME280;66155;46.204;5.220;2023-08-06T07:38:25;98847.19;;;17.12;62.72
48874;BME280;66155;46.204;5.220;2023-08-06T07:44:17;98832.72;;;17.28;60.79
48874;BME280;66155;46.204;5.220;2023-08-06T07:50:08;98844.91;;;17.24;61.25
48874;BME280;66155;46.204;5.220;2023-08-06T07:55:59;98836.13;;;17.48;60.45
48874;BME280;66155;46.204;5.220;2023-08-06T08:01:52;98848.16;;;17.87;59.49
48874;BME280;66155;46.204;5.220;2023-08-06T08:07:43;98823.19;;;18.26;58.89
48874;BME280;66155;46.204;5.220;2023-08-06T08:13:35;98832.47;;;18.23;58.30
48874;BME280;66155;46.204;5.220;2023-08-06T08:19:25;98840.78;;;18.17;58.08
48874;BME280;66155;46.204;5.220;2023-08-06T08:25:17;98843.28;;;17.94;58.32
48874;BME280;66155;46.204;5.220;2023-08-06T08:31:08;98845.28;;;17.70;58.77
48874;BME280;66155;46.204;5.220;2023-08-06T08:37:00;98858.28;;;17.28;60.88
48874;BME280;66155;46.204;5.220;2023-08-06T08:42:51;98870.75;;;17.22;62.43
48874;BME280;66155;46.204;5.220;2023-08-06T08:48:42;98871.81;;;17.02;63.03
48874;BME280;66155;46.204;5.220;2023-08-06T08:54:34;98869.63;;;17.09;63.38
48874;BME280;66155;46.204;5.220;2023-08-06T09:00:26;98890.47;;;17.06;63.27
48874;BME280;66155;46.204;5.220;2023-08-06T09:06:21;98889.59;;;17.29;64.10
48874;BME280;66155;46.204;5.220;2023-08-06T09:12:16;98899.84;;;17.31;62.35
48874;BME280;66155;46.204;5.220;2023-08-06T09:18:11;98893.75;;;17.17;62.94
48874;BME280;66155;46.204;5.220;2023-08-06T09:24:06;98913.38;;;17.24;62.13
48874;BME280;66155;46.204;5.220;2023-08-06T09:29:58;98871.94;;;17.30;61.32
48874;BME280;66155;46.204;5.220;2023-08-06T09:35:49;98867.00;;;17.61;59.85
48874;BME280;66155;46.204;5.220;2023-08-06T09:41:41;98879.69;;;17.59;58.21
48874;BME280;66155;46.204;5.220;2023-08-06T09:47:32;98886.69;;;17.83;58.06
48874;BME280;66155;46.204;5.220;2023-08-06T09:53:23;98873.00;;;18.14;57.68
48874;BME280;66155;46.204;5.220;2023-08-06T09:59:14;98894.88;;;18.14;57.15
48874;BME280;66155;46.204;5.220;2023-08-06T10:05:07;98873.50;;;18.57;55.39
48874;BME280;66155;46.204;5.220;2023-08-06T10:10:59;98881.09;;;19.00;55.14
48874;BME280;66155;46.204;5.220;2023-08-06T10:16:50;98899.38;;;18.97;55.06
48874;BME280;66155;46.204;5.220;2023-08-06T10:23:01;98888.41;;;19.17;54.03
48874;BME280;66155;46.204;5.220;2023-08-06T10:28:59;98883.13;;;19.40;53.63
48874;BME280;66155;46.204;5.220;2023-08-06T10:40:53;98896.69;;;19.25;54.17
48874;BME280;66155;46.204;5.220;2023-08-06T10:46:52;98893.19;;;19.38;53.84
48874;BME280;66155;46.204;5.220;2023-08-06T10:52:44;98900.94;;;19.12;53.74
48874;BME280;66155;46.204;5.220;2023-08-06T10:58:35;98894.50;;;18.62;55.69
48874;BME280;66155;46.204;5.220;2023-08-06T11:04:30;98900.78;;;18.94;56.26
48874;BME280;66155;46.204;5.220;2023-08-06T11:10:21;98904.44;;;19.07;55.33
48874;BME280;66155;46.204;5.220;2023-08-06T11:16:15;98896.66;;;18.60;55.00
48874;BME280;66155;46.204;5.220;2023-08-06T11:22:11;98922.06;;;18.29;56.55
48874;BME280;66155;46.204;5.220;2023-08-06T11:28:03;98910.53;;;18.52;55.34
48874;BME280;66155;46.204;5.220;2023-08-06T11:33:57;98903.59;;;18.70;55.18
48874;BME280;66155;46.204;5.220;2023-08-06T11:39:49;98908.91;;;18.84;54.69
48874;BME280;66155;46.204;5.220;2023-08-06T11:45:40;98893.81;;;19.35;53.58
48874;BME280;66155;46.204;5.220;2023-08-06T11:51:32;98884.38;;;19.88;52.14
48874;BME280;66155;46.204;5.220;2023-08-06T11:57:23;98899.63;;;20.13;49.91
48874;BME280;66155;46.204;5.220;2023-08-06T12:03:14;98915.59;;;19.77;50.66
48874;BME280;66155;46.204;5.220;2023-08-06T12:09:09;98909.66;;;19.57;51.66
48874;BME280;66155;46.204;5.220;2023-08-06T12:15:01;98904.22;;;19.77;51.72
48874;BME280;66155;46.204;5.220;2023-08-06T12:20:54;98915.09;;;19.52;53.19
48874;BME280;66155;46.204;5.220;2023-08-06T12:26:45;98923.25;;;18.78;54.23
48874;BME280;66155;46.204;5.220;2023-08-06T12:32:36;98928.53;;;18.64;55.08
48874;BME280;66155;46.204;5.220;2023-08-06T12:38:27;98918.97;;;18.96;54.29
48874;BME280;66155;46.204;5.220;2023-08-06T12:44:18;98928.59;;;19.51;52.57
48874;BME280;66155;46.204;5.220;2023-08-06T12:50:09;98920.78;;;19.68;51.90
48874;BME280;66155;46.204;5.220;2023-08-06T12:56:00;98910.78;;;20.10;50.61
48874;BME280;66155;46.204;5.220;2023-08-06T13:01:54;98903.66;;;20.51;49.03
48874;BME280;66155;46.204;5.220;2023-08-06T13:07:45;98900.88;;;20.56;50.23
48874;BME280;66155;46.204;5.220;2023-08-06T13:13:36;98893.78;;;20.83;48.55
48874;BME280;66155;46.204;5.220;2023-08-06T13:19:27;98897.09;;;20.97;46.75
48874;BME280;66155;46.204;5.220;2023-08-06T13:25:18;98899.47;;;21.34;45.30
48874;BME280;66155;46.204;5.220;2023-08-06T13:31:10;98896.94;;;21.55;44.62
48874;BME280;66155;46.204;5.220;2023-08-06T13:37:00;98904.09;;;21.80;44.93
48874;BME280;66155;46.204;5.220;2023-08-06T13:42:53;98894.94;;;22.16;44.25
48874;BME280;66155;46.204;5.220;2023-08-06T13:48:45;98896.66;;;22.21;44.36
48874;BME280;66155;46.204;5.220;2023-08-06T13:54:37;98895.59;;;22.05;44.06
48874;BME280;66155;46.204;5.220;2023-08-06T14:00:28;98903.19;;;22.32;42.92
48874;BME280;66155;46.204;5.220;2023-08-06T14:06:19;98906.06;;;22.01;42.31
48874;BME280;66155;46.204;5.220;2023-08-06T14:12:10;98913.03;;;22.32;41.31
48874;BME280;66155;46.204;5.220;2023-08-06T14:18:01;98900.31;;;21.99;41.44
48874;BME280;66155;46.204;5.220;2023-08-06T14:23:53;98889.84;;;21.94;42.59
48874;BME280;66155;46.204;5.220;2023-08-06T14:29:44;98906.66;;;22.15;42.63
48874;BME280;66155;46.204;5.220;2023-08-06T14:35:35;98896.75;;;22.42;42.24
48874;BME280;66155;46.204;5.220;2023-08-06T14:41:26;98895.25;;;22.15;42.84
48874;BME280;66155;46.204;5.220;2023-08-06T14:47:17;98904.94;;;22.28;41.63
48874;BME280;66155;46.204;5.220;2023-08-06T14:53:08;98900.75;;;23.08;40.15
48874;BME280;66155;46.204;5.220;2023-08-06T14:59:01;98896.25;;;26.43;34.83
48874;BME280;66155;46.204;5.220;2023-08-06T15:04:52;98901.38;;;27.03;34.45
48874;BME280;66155;46.204;5.220;2023-08-06T15:10:43;98911.00;;;25.61;36.05
48874;BME280;66155;46.204;5.220;2023-08-06T15:16:40;98894.25;;;24.30;37.27
48874;BME280;66155;46.204;5.220;2023-08-06T15:22:31;98901.31;;;23.68;38.33
48874;BME280;66155;46.204;5.220;2023-08-06T15:28:23;98905.91;;;23.25;38.35
48874;BME280;66155;46.204;5.220;2023-08-06T15:34:14;98901.53;;;23.08;39.01
48874;BME280;66155;46.204;5.220;2023-08-06T15:40:06;98905.19;;;23.58;38.42
48874;BME280;66155;46.204;5.220;2023-08-06T15:45:57;98889.78;;;28.23;31.62
48874;BME280;66155;46.204;5.220;2023-08-06T15:51:48;98891.75;;;31.00;28.24
48874;BME280;66155;46.204;5.220;2023-08-06T15:57:39;98903.59;;;27.79;31.14
48874;BME280;66155;46.204;5.220;2023-08-06T16:03:30;98909.53;;;26.24;32.24
48874;BME280;66155;46.204;5.220;2023-08-06T16:09:21;98902.97;;;25.89;33.11
48874;BME280;66155;46.204;5.220;2023-08-06T16:15:15;98905.22;;;24.78;33.90
48874;BME280;66155;46.204;5.220;2023-08-06T16:21:09;98901.78;;;24.40;34.98
48874;BME280;66155;46.204;5.220;2023-08-06T16:27:00;98891.94;;;24.65;34.98
48874;BME280;66155;46.204;5.220;2023-08-06T16:32:52;98897.91;;;24.13;36.22
48874;BME280;66155;46.204;5.220;2023-08-06T16:38:43;98899.19;;;23.28;37.28
48874;BME280;66155;46.204;5.220;2023-08-06T16:44:34;98886.84;;;24.36;36.15
48874;BME280;66155;46.204;5.220;2023-08-06T16:50:25;98887.13;;;26.28;33.23
48874;BME280;66155;46.204;5.220;2023-08-06T16:56:16;98897.44;;;27.56;31.23
48874;BME280;66155;46.204;5.220;2023-08-06T17:02:07;98900.22;;;26.49;32.88
48874;BME280;66155;46.204;5.220;2023-08-06T17:07:58;98912.38;;;25.27;33.83
48874;BME280;66155;46.204;5.220;2023-08-06T17:13:50;98917.81;;;25.30;34.17
48874;BME280;66155;46.204;5.220;2023-08-06T17:19:44;98914.88;;;26.24;32.63
48874;BME280;66155;46.204;5.220;2023-08-06T17:25:35;98920.13;;;25.32;33.80
48874;BME280;66155;46.204;5.220;2023-08-06T17:31:26;98924.28;;;23.94;36.04
48874;BME280;66155;46.204;5.220;2023-08-06T17:37:25;64413.28;;;-144.50;100.00
48874;BME280;66155;46.204;5.220;2023-08-06T17:43:24;64413.28;;;-144.50;100.00
48874;BME280;66155;46.204;5.220;2023-08-06T17:49:23;64413.28;;;-144.50;100.00
48874;BME280;66155;46.204;5.220;2023-08-06T17:55:22;64413.28;;;-144.50;100.00
48874;BME280;66155;46.204;5.220;2023-08-06T18:01:21;64413.28;;;-144.50;100.00
48874;BME280;66155;46.204;5.220;2023-08-06T18:07:20;64413.28;;;-144.50;100.00
48874;BME280;66155;46.204;5.220;2023-08-06T18:13:19;64413.28;;;-144.50;100.00
48874;BME280;66155;46.204;5.220;2023-08-06T18:19:18;64413.28;;;-144.50;100.00
48874;BME280;66155;46.204;5.220;2023-08-06T18:25:17;64413.28;;;-144.50;100.00
48874;BME280;66155;46.204;5.220;2023-08-06T18:31:16;64413.28;;;-144.50;100.00
48874;BME280;66155;46.204;5.220;2023-08-06T18:37:15;64413.28;;;-144.50;100.00
48874;BME280;66155;46.204;5.220;2023-08-06T18:43:15;64413.28;;;-144.50;100.00
48874;BME280;66155;46.204;5.220;2023-08-06T18:49:13;64413.28;;;-144.50;100.00
48874;BME280;66155;46.204;5.220;2023-08-06T18:55:13;64413.28;;;-144.50;100.00
48874;BME280;66155;46.204;5.220;2023-08-06T19:01:12;64413.28;;;-144.50;100.00
48874;BME280;66155;46.204;5.220;2023-08-06T19:07:11;64413.28;;;-144.50;100.00
48874;BME280;66155;46.204;5.220;2023-08-06T19:13:10;64413.28;;;-144.50;100.00
48874;BME280;66155;46.204;5.220;2023-08-06T19:19:10;64413.28;;;-144.50;100.00
48874;BME280;66155;46.204;5.220;2023-08-06T19:25:09;64413.28;;;-144.50;100.00
48874;BME280;66155;46.204;5.220;2023-08-06T19:31:08;64413.28;;;-144.50;100.00
48874;BME280;66155;46.204;5.220;2023-08-06T19:37:07;64413.28;;;-144.50;100.00
48874;BME280;66155;46.204;5.220;2023-08-06T19:43:06;64413.28;;;-144.50;100.00
48874;BME280;66155;46.204;5.220;2023-08-06T19:49:05;64413.28;;;-144.50;100.00
48874;BME280;66155;46.204;5.220;2023-08-06T19:55:05;64413.28;;;-144.50;100.00
48874;BME280;66155;46.204;5.220;2023-08-06T20:01:04;64413.28;;;-144.50;100.00
48874;BME280;66155;46.204;5.220;2023-08-06T20:07:04;64413.28;;;-144.50;100.00
48874;BME280;66155;46.204;5.220;2023-08-06T20:13:05;64413.28;;;-144.50;100.00
48874;BME280;66155;46.204;5.220;2023-08-06T20:19:04;64413.28;;;-144.50;100.00
48874;BME280;66155;46.204;5.220;2023-08-06T20:25:03;64413.28;;;-144.50;100.00
48874;BME280;66155;46.204;5.220;2023-08-06T20:31:03;64413.28;;;-144.50;100.00
48874;BME280;66155;46.204;5.220;2023-08-06T20:37:02;64413.28;;;-144.50;100.00
48874;BME280;66155;46.204;5.220;2023-08-06T20:43:01;64413.28;;;-144.50;100.00
48874;BME280;66155;46.204;5.220;2023-08-06T20:49:00;64413.28;;;-144.50;100.00
48874;BME280;66155;46.204;5.220;2023-08-06T20:54:59;64413.28;;;-144.50;100.00
48874;BME280;66155;46.204;5.220;2023-08-06T21:00:59;64413.28;;;-144.50;100.00
48874;BME280;66155;46.204;5.220;2023-08-06T21:07:02;64413.28;;;-144.50;100.00
48874;BME280;66155;46.204;5.220;2023-08-06T21:13:02;64413.28;;;-144.50;100.00
48874;BME280;66155;46.204;5.220;2023-08-06T21:19:00;64413.28;;;-144.50;100.00
48874;BME280;66155;46.204;5.220;2023-08-06T21:24:59;64413.28;;;-144.50;100.00
48874;BME280;66155;46.204;5.220;2023-08-06T21:30:59;64413.28;;;-144.50;100.00
48874;BME280;66155;46.204;5.220;2023-08-06T21:36:59;64413.28;;;-144.50;100.00
48874;BME280;66155;46.204;5.220;2023-08-06T21:42:58;64413.28;;;-144.50;100.00
48874;BME280;66155;46.204;5.220;2023-08-06T21:48:56;64413.28;;;-144.50;100.00
48874;BME280;66155;46.204;5.220;2023-08-06T21:54:56;64413.28;;;-144.50;100.00
48874;BME280;66155;46.204;5.220;2023-08-06T22:00:55;64413.28;;;-144.50;100.00
48874;BME280;66155;46.204;5.220;2023-08-06T22:06:54;64413.28;;;-144.50;100.00
48874;BME280;66155;46.204;5.220;2023-08-06T22:12:53;64413.28;;;-144.50;100.00
48874;BME280;66155;46.204;5.220;2023-08-06T22:18:52;64413.28;;;-144.50;100.00
48874;BME280;66155;46.204;5.220;2023-08-06T22:24:50;64413.28;;;-144.50;100.00
48874;BME280;66155;46.204;5.220;2023-08-06T22:30:50;64413.28;;;-144.50;100.00
48874;BME280;66155;46.204;5.220;2023-08-06T22:36:48;64413.28;;;-144.50;100.00
48874;BME280;66155;46.204;5.220;2023-08-06T22:42:48;64413.28;;;-144.50;100.00
48874;BME280;66155;46.204;5.220;2023-08-06T22:48:47;64413.28;;;-144.50;100.00
48874;BME280;66155;46.204;5.220;2023-08-06T22:54:46;64413.28;;;-144.50;100.00
48874;BME280;66155;46.204;5.220;2023-08-06T23:00:45;64413.28;;;-144.50;100.00
48874;BME280;66155;46.204;5.220;2023-08-06T23:06:44;64413.28;;;-144.50;100.00
48874;BME280;66155;46.204;5.220;2023-08-06T23:12:43;64413.28;;;-144.50;100.00
48874;BME280;66155;46.204;5.220;2023-08-06T23:18:42;64413.28;;;-144.50;100.00
48874;BME280;66155;46.204;5.220;2023-08-06T23:24:42;64413.28;;;-144.50;100.00
48874;BME280;66155;46.204;5.220;2023-08-06T23:30:41;64413.28;;;-144.50;100.00
48874;BME280;66155;46.204;5.220;2023-08-06T23:36:43;64413.28;;;-144.50;100.00
48874;BME280;66155;46.204;5.220;2023-08-06T23:42:41;64413.28;;;-144.50;100.00
48874;BME280;66155;46.204;5.220;2023-08-06T23:48:40;64413.28;;;-144.50;100.00
48874;BME280;66155;46.204;5.220;2023-08-06T23:54:39;64413.28;;;-144.50;100.00
